createdAt,value
2018-07-06T00:02:15.014Z,97094.56
2018-07-06T00:05:02.036Z,97091.33
2018-07-06T00:10:41.171Z,97083.30
2018-07-06T00:13:28.039Z,97077.14
2018-07-06T00:16:15.258Z,97083.56
2018-07-06T00:19:01.902Z,97076.62
2018-07-06T00:21:49.070Z,97078.75
2018-07-06T00:24:35.929Z,97069.37
2018-07-06T00:27:23.686Z,97071.77
2018-07-06T00:30:10.648Z,97072.84
2018-07-06T00:36:07.125Z,97070.47
2018-07-06T00:38:54.169Z,97076.62
2018-07-06T00:42:11.629Z,97072.87
2018-07-06T00:44:58.596Z,97068.85
2018-07-06T00:47:46.702Z,97068.84
2018-07-06T00:50:35.949Z,97061.09
2018-07-06T00:53:23.766Z,97060.81
2018-07-06T00:56:10.690Z,97064.02
2018-07-06T00:58:57.393Z,97059.48
2018-07-06T01:01:44.419Z,97066.70
2018-07-06T01:04:31.321Z,97058.95
2018-07-06T01:07:18.178Z,97059.48
2018-07-06T01:10:05.213Z,97051.69
2018-07-06T01:12:51.587Z,97061.35
2018-07-06T01:15:38.200Z,97056.48
2018-07-06T01:18:24.891Z,97054.91
2018-07-06T01:21:11.700Z,97047.69
2018-07-06T01:23:58.702Z,97052.78
2018-07-06T01:26:39.520Z,97044.20
2018-07-06T01:29:26.048Z,97046.61
2018-07-06T01:35:05.998Z,97041.48
2018-07-06T01:37:52.658Z,97034.59
2018-07-06T01:40:39.642Z,97028.45
2018-07-06T01:43:26.419Z,97034.06
2018-07-06T01:46:13.650Z,97032.44
2018-07-06T01:49:00.621Z,97032.44
2018-07-06T01:51:47.584Z,97027.63
2018-07-06T01:54:34.523Z,97033.23
2018-07-06T01:57:21.224Z,97037.26
2018-07-06T02:00:08.261Z,97045.56
2018-07-06T02:02:55.190Z,97044.50
2018-07-06T02:05:42.368Z,97037.52
2018-07-06T02:08:29.463Z,97039.41
2018-07-06T02:11:17.081Z,97032.98
2018-07-06T02:14:04.011Z,97038.59
2018-07-06T02:16:50.856Z,97037.27
2018-07-06T02:19:37.955Z,97041.00
2018-07-06T02:22:24.736Z,97038.88
2018-07-06T02:25:11.551Z,97041.03
2018-07-06T02:30:50.478Z,97039.67
2018-07-06T02:33:37.277Z,97049.84
2018-07-06T02:36:19.141Z,97054.39
2018-07-06T02:39:05.873Z,97056.53
2018-07-06T02:41:53.312Z,97050.39
2018-07-06T02:44:40.214Z,97047.72
2018-07-06T02:47:27.102Z,97058.41
2018-07-06T02:50:13.853Z,97060.82
2018-07-06T02:53:00.937Z,97055.20
2018-07-06T02:55:43.607Z,97062.70
2018-07-06T02:58:30.330Z,97067.77
2018-07-06T03:01:11.495Z,97080.90
2018-07-06T03:03:58.284Z,97074.21
2018-07-06T03:06:45.041Z,97080.63
2018-07-06T03:09:31.915Z,97083.88
2018-07-06T03:12:18.815Z,97082.77
2018-07-06T03:15:05.656Z,97097.22
2018-07-06T03:17:52.452Z,97088.92
2018-07-06T03:20:33.391Z,97103.91
2018-07-06T03:23:20.141Z,97096.93
2018-07-06T03:26:06.807Z,97102.00
2018-07-06T03:28:53.843Z,97100.17
2018-07-06T03:31:41.362Z,97099.37
2018-07-06T03:34:28.503Z,97094.00
2018-07-06T03:37:15.457Z,97088.63
2018-07-06T03:40:02.292Z,97100.45
2018-07-06T03:42:49.312Z,97102.33
2018-07-06T03:45:30.541Z,97099.08
2018-07-06T03:48:18.289Z,97102.05
2018-07-06T03:51:05.161Z,97100.98
2018-07-06T03:53:52.828Z,97099.36
2018-07-06T03:56:39.635Z,97107.13
2018-07-06T03:59:26.900Z,97111.96
2018-07-06T04:02:13.790Z,97109.26
2018-07-06T04:04:54.858Z,97108.20
2018-07-06T04:10:39.384Z,97107.16
2018-07-06T04:13:27.399Z,97109.33
2018-07-06T04:16:14.187Z,97108.47
2018-07-06T04:19:09.334Z,97115.48
2018-07-06T04:24:43.436Z,97125.08
2018-07-06T04:27:30.230Z,97131.20
2018-07-06T04:33:12.841Z,97139.80
2018-07-06T04:35:59.728Z,97138.20
2018-07-06T04:38:48.269Z,97149.70
2018-07-06T04:41:35.056Z,97156.63
2018-07-06T04:44:22.035Z,97163.88
2018-07-06T04:47:08.860Z,97163.44
2018-07-06T04:49:55.849Z,97165.58
2018-07-06T04:52:42.647Z,97175.70
2018-07-06T04:55:29.355Z,97165.53
2018-07-06T04:58:18.551Z,97177.58
2018-07-06T05:01:06.253Z,97175.91
2018-07-06T05:03:53.128Z,97173.61
2018-07-06T05:06:40.188Z,97178.68
2018-07-06T05:09:27.278Z,97181.61
2018-07-06T05:12:14.062Z,97188.35
2018-07-06T05:15:01.034Z,97185.08
2018-07-06T05:17:48.100Z,97195.53
2018-07-06T05:20:35.009Z,97192.36
2018-07-06T05:23:21.822Z,97195.58
2018-07-06T05:26:08.860Z,97200.95
2018-07-06T05:28:55.797Z,97208.38
2018-07-06T05:31:42.780Z,97213.53
2018-07-06T05:34:23.960Z,97218.57
2018-07-06T05:37:10.679Z,97219.60
2018-07-06T05:39:51.608Z,97228.17
2018-07-06T05:42:32.217Z,97224.46
2018-07-06T05:45:19.044Z,97233.56
2018-07-06T05:48:06.744Z,97236.30
2018-07-06T05:50:53.530Z,97238.46
2018-07-06T05:53:40.593Z,97241.63
2018-07-06T05:56:27.349Z,97239.19
2018-07-06T05:59:14.077Z,97251.47
2018-07-06T06:02:00.940Z,97248.62
2018-07-06T06:04:47.788Z,97242.22
2018-07-06T06:07:25.658Z,97245.70
2018-07-06T06:09:57.084Z,97257.47
2018-07-06T06:15:06.189Z,97256.16
2018-07-06T06:17:36.048Z,97266.86
2018-07-06T06:20:06.013Z,97270.89
2018-07-06T06:22:36.933Z,97272.50
2018-07-06T06:25:06.951Z,97274.91
2018-07-06T06:27:36.911Z,97280.55
2018-07-06T06:30:06.759Z,97280.81
2018-07-06T06:32:36.873Z,97283.19
2018-07-06T06:35:06.765Z,97286.33
2018-07-06T06:37:36.675Z,97291.48
2018-07-06T06:40:06.517Z,97297.10
2018-07-06T06:42:36.777Z,97288.48
2018-07-06T06:45:06.617Z,97303.70
2018-07-06T06:47:36.476Z,97300.72
2018-07-06T06:50:06.413Z,97303.94
2018-07-06T06:52:36.855Z,97291.11
2018-07-06T06:55:06.738Z,97296.98
2018-07-06T06:57:39.527Z,97291.39
2018-07-06T07:00:09.358Z,97290.14
2018-07-06T07:02:39.361Z,97288.75
2018-07-06T07:05:09.276Z,97290.41
2018-07-06T07:07:39.209Z,97284.19
2018-07-06T07:10:10.175Z,97281.50
2018-07-06T07:12:40.050Z,97295.12
2018-07-06T07:15:10.207Z,97295.39
2018-07-06T07:17:40.148Z,97298.58
2018-07-06T07:20:09.994Z,97298.59
2018-07-06T07:22:40.056Z,97301.29
2018-07-06T07:25:09.893Z,97300.40
2018-07-06T07:27:40.491Z,97308.74
2018-07-06T07:30:10.378Z,97311.19
2018-07-06T07:32:40.155Z,97318.41
2018-07-06T07:35:10.929Z,97318.69
2018-07-06T07:37:40.707Z,97323.75
2018-07-06T07:40:10.565Z,97314.62
2018-07-06T07:42:40.074Z,97319.13
2018-07-06T07:45:09.774Z,97322.27
2018-07-06T07:47:39.685Z,97320.75
2018-07-06T07:50:09.479Z,97326.66
2018-07-06T07:52:50.595Z,97334.67
2018-07-06T07:55:21.468Z,97329.58
2018-07-06T07:57:51.482Z,97331.73
2018-07-06T08:00:21.704Z,97333.05
2018-07-06T08:02:51.175Z,97331.53
2018-07-06T08:05:21.484Z,97331.91
2018-07-06T08:07:52.300Z,97334.88
2018-07-06T08:10:22.558Z,97333.83
2018-07-06T08:12:52.246Z,97336.53
2018-07-06T08:20:33.524Z,97342.45
2018-07-06T08:23:04.531Z,97346.95
2018-07-06T08:25:34.503Z,97355.87
2018-07-06T08:28:05.672Z,97346.02
2018-07-06T08:30:35.624Z,97351.86
2018-07-06T08:33:06.142Z,97350.80
2018-07-06T08:35:41.071Z,97349.66
2018-07-06T08:38:10.914Z,97349.40
2018-07-06T08:40:41.671Z,97356.91
2018-07-06T08:43:11.874Z,97353.53
2018-07-06T08:45:41.957Z,97354.88
2018-07-06T08:48:11.748Z,97360.34
2018-07-06T08:50:41.720Z,97358.57
2018-07-06T08:53:11.696Z,97356.68
2018-07-06T08:55:41.397Z,97353.70
2018-07-06T08:58:11.528Z,97359.25
2018-07-06T09:00:41.630Z,97360.44
2018-07-06T09:03:11.834Z,97364.45
2018-07-06T09:05:41.900Z,97364.47
2018-07-06T09:08:12.254Z,97367.71
2018-07-06T09:10:42.305Z,97365.06
2018-07-06T09:15:47.677Z,97371.98
2018-07-06T09:18:17.664Z,97368.50
2018-07-06T09:20:47.589Z,97362.54
2018-07-06T09:23:17.992Z,97368.68
2018-07-06T09:25:49.002Z,97368.55
2018-07-06T09:28:18.558Z,97374.67
2018-07-06T09:30:48.491Z,97377.10
2018-07-06T09:33:18.395Z,97375.50
2018-07-06T09:35:48.284Z,97382.72
2018-07-06T09:38:18.135Z,97377.36
2018-07-06T09:40:48.225Z,97381.69
2018-07-06T09:43:24.401Z,97386.28
2018-07-06T09:45:53.818Z,97382.48
2018-07-06T09:48:23.562Z,97387.53
2018-07-06T09:50:53.674Z,97390.88
2018-07-06T09:53:23.169Z,97387.67
2018-07-06T09:55:53.205Z,97383.82
2018-07-06T09:58:23.067Z,97388.88
2018-07-06T10:03:33.802Z,97392.08
2018-07-06T10:06:03.783Z,97384.70
2018-07-06T10:08:33.790Z,97386.88
2018-07-06T10:11:04.764Z,97394.52
2018-07-06T10:13:34.449Z,97396.38
2018-07-06T10:16:04.393Z,97393.00
2018-07-06T10:18:34.094Z,97393.02
2018-07-06T10:21:03.914Z,97389.64
2018-07-06T10:23:33.752Z,97384.98
2018-07-06T10:26:03.865Z,97384.94
2018-07-06T10:30:49.487Z,97381.45
2018-07-06T10:33:19.385Z,97379.72
2018-07-06T10:35:48.993Z,97379.50
2018-07-06T10:40:54.058Z,97380.63
2018-07-06T10:43:23.469Z,97373.67
2018-07-06T10:45:53.056Z,97371.81
2018-07-06T10:48:22.878Z,97366.50
2018-07-06T10:50:52.541Z,97364.63
2018-07-06T10:53:22.264Z,97363.11
2018-07-06T10:55:53.685Z,97362.64
2018-07-06T11:03:34.090Z,97356.97
2018-07-06T11:06:04.086Z,97353.43
2018-07-06T11:08:33.896Z,97359.47
2018-07-06T11:11:03.696Z,97357.13
2018-07-06T11:13:33.572Z,97365.05
2018-07-06T11:16:07.402Z,97358.17
2018-07-06T11:18:37.093Z,97359.94
2018-07-06T11:21:07.046Z,97366.77
2018-07-06T11:23:36.985Z,97371.11
2018-07-06T11:26:06.948Z,97374.00
2018-07-06T11:28:36.813Z,97370.28
2018-07-06T11:31:06.736Z,97371.53
2018-07-06T11:33:36.596Z,97369.89
2018-07-06T11:36:06.577Z,97373.48
2018-07-06T11:38:36.394Z,97367.61
2018-07-06T11:41:07.088Z,97366.80
2018-07-06T11:43:36.962Z,97368.72
2018-07-06T11:46:07.040Z,97368.41
2018-07-06T11:48:36.720Z,97367.59
2018-07-06T11:51:06.216Z,97356.94
2018-07-06T11:53:36.021Z,97361.99
2018-07-06T11:56:06.015Z,97357.20
2018-07-06T11:58:36.056Z,97358.27
2018-07-06T12:01:06.092Z,97358.81
2018-07-06T12:03:36.357Z,97359.08
2018-07-06T12:06:06.249Z,97360.17
2018-07-06T12:08:36.263Z,97352.98
2018-07-06T12:11:06.435Z,97347.87
2018-07-06T12:13:36.241Z,97347.30
2018-07-06T12:16:06.289Z,97345.73
2018-07-06T12:18:36.266Z,97343.31
2018-07-06T12:21:06.458Z,97340.91
2018-07-06T12:23:37.594Z,97342.48
2018-07-06T12:26:07.578Z,97340.61
2018-07-06T12:28:37.393Z,97342.80
2018-07-06T12:31:07.412Z,97343.06
2018-07-06T12:33:37.169Z,97338.48
2018-07-06T12:36:06.871Z,97341.16
2018-07-06T12:38:36.629Z,97338.19
2018-07-06T12:41:06.708Z,97333.13
2018-07-06T12:43:36.509Z,97343.30
2018-07-06T12:46:06.444Z,97332.86
2018-07-06T12:48:36.324Z,97335.52
2018-07-06T12:51:06.059Z,97332.55
2018-07-06T12:53:35.892Z,97334.14
2018-07-06T12:56:05.717Z,97330.69
2018-07-06T12:58:35.738Z,97332.29
2018-07-06T13:01:05.504Z,97322.09
2018-07-06T13:03:35.424Z,97324.55
2018-07-06T13:06:05.457Z,97319.72
2018-07-06T13:08:35.207Z,97320.78
2018-07-06T13:11:05.923Z,97319.18
2018-07-06T13:13:35.754Z,97320.50
2018-07-06T13:16:06.129Z,97310.84
2018-07-06T13:18:35.972Z,97313.82
2018-07-06T13:21:05.629Z,97307.11
2018-07-06T13:23:35.162Z,97311.07
2018-07-06T13:26:04.721Z,97302.44
2018-07-06T13:28:34.621Z,97307.25
2018-07-06T13:31:04.672Z,97304.86
2018-07-06T13:33:34.555Z,97305.34
2018-07-06T13:36:04.373Z,97304.16
2018-07-06T13:38:34.194Z,97304.48
2018-07-06T13:41:04.191Z,97306.16
2018-07-06T13:43:34.471Z,97309.03
2018-07-06T13:46:04.248Z,97302.41
2018-07-06T13:48:34.083Z,97303.34
2018-07-06T13:51:03.816Z,97302.20
2018-07-06T13:53:33.643Z,97308.27
2018-07-06T13:56:03.396Z,97307.27
2018-07-06T13:58:33.279Z,97308.31
2018-07-06T14:01:06.349Z,97310.30
2018-07-06T14:03:36.048Z,97306.02
2018-07-06T14:06:05.892Z,97303.20
2018-07-06T14:08:38.637Z,97299.95
2018-07-06T14:11:16.133Z,97297.17
2018-07-06T14:13:45.936Z,97295.89
2018-07-06T14:16:15.655Z,97294.42
2018-07-06T14:18:45.460Z,97288.91
2018-07-06T14:21:15.290Z,97291.47
2018-07-06T14:23:45.280Z,97284.02
2018-07-06T14:26:15.302Z,97280.83
2018-07-06T14:28:45.209Z,97270.75
2018-07-06T14:31:15.016Z,97280.67
2018-07-06T14:33:44.700Z,97274.83
2018-07-06T14:36:14.527Z,97265.72
2018-07-06T14:38:45.910Z,97269.03
2018-07-06T14:41:15.728Z,97262.22
2018-07-06T14:43:45.584Z,97261.19
2018-07-06T14:46:15.478Z,97260.37
2018-07-06T14:48:45.353Z,97260.70
2018-07-06T14:51:15.178Z,97252.63
2018-07-06T14:53:48.107Z,97257.13
2018-07-06T14:56:17.988Z,97261.32
2018-07-06T14:58:48.088Z,97257.13
2018-07-06T15:01:18.102Z,97256.23
2018-07-06T15:03:48.679Z,97256.72
2018-07-06T15:06:18.672Z,97255.16
2018-07-06T15:08:48.513Z,97256.34
2018-07-06T15:11:18.764Z,97252.43
2018-07-06T15:13:49.202Z,97259.07
2018-07-06T15:16:19.049Z,97253.40
2018-07-06T15:18:49.199Z,97257.58
2018-07-06T15:21:18.999Z,97249.74
2018-07-06T15:23:48.931Z,97251.50
2018-07-06T15:26:19.056Z,97252.77
2018-07-06T15:28:49.156Z,97256.42
2018-07-06T15:31:19.087Z,97249.80
2018-07-06T15:33:49.244Z,97245.05
2018-07-06T15:36:19.266Z,97245.91
2018-07-06T15:38:49.232Z,97239.84
2018-07-06T15:41:19.369Z,97244.28
2018-07-06T15:43:49.268Z,97243.42
2018-07-06T15:46:19.328Z,97236.13
2018-07-06T15:48:50.002Z,97236.55
2018-07-06T15:51:19.908Z,97232.17
2018-07-06T15:53:49.583Z,97237.74
2018-07-06T15:56:19.465Z,97238.59
2018-07-06T15:58:56.414Z,97234.41
2018-07-06T16:01:26.141Z,97243.03
2018-07-06T16:03:56.008Z,97236.91
2018-07-06T16:06:25.773Z,97235.50
2018-07-06T16:08:55.723Z,97242.04
2018-07-06T16:11:25.559Z,97245.20
2018-07-06T16:13:55.351Z,97243.41
2018-07-06T16:16:25.116Z,97245.62
2018-07-06T16:18:55.297Z,97242.73
2018-07-06T16:21:25.342Z,97249.03
2018-07-06T16:23:55.165Z,97244.77
2018-07-06T16:26:24.969Z,97247.65
2018-07-06T16:28:54.699Z,97251.38
2018-07-06T16:31:24.528Z,97247.52
2018-07-06T16:33:54.604Z,97252.52
2018-07-06T16:36:24.610Z,97249.53
2018-07-06T16:38:54.377Z,97247.86
2018-07-06T16:41:23.927Z,97255.56
2018-07-06T16:43:53.713Z,97253.70
2018-07-06T16:46:23.574Z,97259.97
2018-07-06T16:48:53.443Z,97262.19
2018-07-06T16:51:23.298Z,97267.53
2018-07-06T16:53:53.266Z,97258.28
2018-07-06T16:56:23.066Z,97265.81
2018-07-06T16:58:53.234Z,97271.60
2018-07-06T17:01:23.133Z,97269.39
2018-07-06T17:03:52.968Z,97281.79
2018-07-06T17:06:22.650Z,97283.98
2018-07-06T17:08:52.424Z,97281.63
2018-07-06T17:11:22.598Z,97281.81
2018-07-06T17:13:52.869Z,97280.46
2018-07-06T17:16:22.776Z,97278.74
2018-07-06T17:18:52.697Z,97278.18
2018-07-06T17:21:22.578Z,97273.23
2018-07-06T17:23:52.508Z,97276.48
2018-07-06T17:26:22.502Z,97277.91
2018-07-06T17:28:52.806Z,97276.88
2018-07-06T17:31:22.976Z,97284.12
2018-07-06T17:33:53.093Z,97282.98
2018-07-06T17:36:22.922Z,97282.85
2018-07-06T17:38:52.952Z,97283.39
2018-07-06T17:41:24.610Z,97288.01
2018-07-06T17:43:54.645Z,97289.38
2018-07-06T17:46:29.110Z,97296.76
2018-07-06T17:48:59.603Z,97294.16
2018-07-06T17:54:10.725Z,97301.16
2018-07-06T17:56:40.707Z,97308.11
2018-07-06T17:59:10.597Z,97300.55
2018-07-06T18:01:40.795Z,97316.94
2018-07-06T18:04:10.829Z,97311.89
2018-07-06T18:06:40.861Z,97315.78
2018-07-06T18:09:10.838Z,97312.18
2018-07-06T18:11:40.748Z,97315.59
2018-07-06T18:14:10.733Z,97323.48
2018-07-06T18:16:41.056Z,97315.79
2018-07-06T18:19:11.057Z,97314.89
2018-07-06T18:21:41.230Z,97326.77
2018-07-06T18:24:11.959Z,97319.06
2018-07-06T18:26:42.607Z,97323.41
2018-07-06T18:29:19.477Z,97326.90
2018-07-06T18:31:49.500Z,97324.20
2018-07-06T18:34:22.167Z,97325.31
2018-07-06T18:36:53.996Z,97329.41
2018-07-06T18:39:24.529Z,97326.50
2018-07-06T18:41:55.399Z,97332.28
2018-07-06T18:48:04.075Z,97339.13
2018-07-06T18:50:36.132Z,97333.79
2018-07-06T18:53:09.453Z,97336.41
2018-07-06T18:55:39.884Z,97335.13
2018-07-06T18:58:10.102Z,97332.44
2018-07-06T19:00:41.996Z,97331.27
2018-07-06T19:03:11.936Z,97330.06
2018-07-06T19:05:41.699Z,97323.06
2018-07-06T19:13:45.796Z,97327.64
2018-07-06T19:16:17.771Z,97329.20
2018-07-06T19:18:48.199Z,97341.29
2018-07-06T19:21:18.756Z,97334.84
2018-07-06T19:26:25.852Z,97334.41
2018-07-06T19:28:55.745Z,97338.70
2018-07-06T19:31:27.442Z,97334.66
2018-07-06T19:33:57.305Z,97341.66
2018-07-06T19:36:28.359Z,97346.73
2018-07-06T19:38:57.838Z,97346.20
2018-07-06T19:41:28.176Z,97349.98
2018-07-06T19:43:59.230Z,97360.18
2018-07-06T19:49:24.407Z,97361.03
2018-07-06T19:51:55.320Z,97365.84
2018-07-06T19:54:25.154Z,97366.92
2018-07-06T19:56:55.302Z,97370.66
2018-07-06T19:59:26.624Z,97371.17
2018-07-06T20:01:57.720Z,97375.77
2018-07-06T20:04:29.404Z,97380.05
2018-07-06T20:07:00.160Z,97380.31
2018-07-06T20:09:30.446Z,97386.79
2018-07-06T20:12:00.520Z,97382.48
2018-07-06T20:17:42.903Z,97381.66
2018-07-06T20:20:13.701Z,97384.89
2018-07-06T20:22:43.847Z,97388.94
2018-07-06T20:25:16.625Z,97388.91
2018-07-06T20:27:46.812Z,97389.42
2018-07-06T20:30:18.365Z,97382.50
2018-07-06T20:32:48.221Z,97386.52
2018-07-06T20:35:18.870Z,97388.66
2018-07-06T20:37:49.624Z,97383.56
2018-07-06T20:40:20.563Z,97384.64
2018-07-06T20:42:51.162Z,97390.25
2018-07-06T20:45:21.202Z,97395.09
2018-07-06T20:47:51.298Z,97398.59
2018-07-06T20:50:21.209Z,97395.36
2018-07-06T20:52:51.079Z,97401.55
2018-07-06T20:55:21.121Z,97392.41
2018-07-06T20:57:51.787Z,97400.18
2018-07-06T21:00:22.506Z,97394.53
2018-07-06T21:02:52.525Z,97406.09
2018-07-06T21:07:59.458Z,97408.76
2018-07-06T21:10:29.747Z,97409.30
2018-07-06T21:13:01.216Z,97417.34
2018-07-06T21:15:31.214Z,97417.07
2018-07-06T21:18:01.129Z,97414.16
2018-07-06T21:20:31.142Z,97432.37
2018-07-06T21:23:03.050Z,97428.11
2018-07-06T21:25:33.175Z,97436.98
2018-07-06T21:28:03.882Z,97436.68
2018-07-06T21:30:34.179Z,97437.49
2018-07-06T21:33:04.456Z,97437.22
2018-07-06T21:35:34.571Z,97438.83
2018-07-06T21:38:04.726Z,97441.23
2018-07-06T21:40:34.712Z,97443.14
2018-07-06T21:43:04.515Z,97454.95
2018-07-06T21:45:34.664Z,97456.54
2018-07-06T21:48:04.654Z,97459.22
2018-07-06T21:50:34.672Z,97458.16
2018-07-06T21:53:04.893Z,97468.59
2018-07-06T21:55:34.848Z,97469.70
2018-07-06T21:58:04.979Z,97470.52
2018-07-06T22:00:39.966Z,97479.11
2018-07-06T22:03:11.066Z,97483.40
2018-07-06T22:05:41.932Z,97484.45
2018-07-06T22:08:11.613Z,97481.27
2018-07-06T22:10:41.714Z,97488.23
2018-07-06T22:13:11.815Z,97498.16
2018-07-06T22:15:44.662Z,97501.03
2018-07-06T22:20:51.023Z,97500.82
2018-07-06T22:23:20.911Z,97492.52
2018-07-06T22:25:51.038Z,97498.95
2018-07-06T22:28:20.929Z,97500.25
2018-07-06T22:30:50.804Z,97506.11
2018-07-06T22:33:20.849Z,97499.69
2018-07-06T22:35:50.793Z,97502.07
2018-07-06T22:38:20.822Z,97500.52
2018-07-06T22:40:51.875Z,97501.19
2018-07-06T22:43:22.115Z,97503.13
2018-07-06T22:45:52.005Z,97495.33
2018-07-06T22:48:22.235Z,97490.02
2018-07-06T22:50:52.276Z,97492.14
2018-07-06T22:53:22.203Z,97496.62
2018-07-06T22:55:52.303Z,97505.05
2018-07-06T22:58:22.430Z,97507.75
2018-07-06T23:00:52.284Z,97512.92
2018-07-06T23:03:22.347Z,97514.99
2018-07-06T23:05:52.367Z,97516.67
2018-07-06T23:08:22.414Z,97517.04
2018-07-06T23:10:52.373Z,97517.57
2018-07-06T23:13:22.077Z,97522.64
2018-07-06T23:15:52.019Z,97525.81
2018-07-06T23:18:22.057Z,97528.49
2018-07-06T23:20:52.034Z,97525.06
2018-07-06T23:23:22.183Z,97522.70
2018-07-06T23:25:52.663Z,97525.91
2018-07-06T23:28:22.576Z,97527.76
2018-07-06T23:30:52.452Z,97541.52
2018-07-06T23:33:22.432Z,97546.13
2018-07-06T23:35:52.596Z,97544.77
2018-07-06T23:38:22.450Z,97547.72
2018-07-06T23:40:51.995Z,97548.42
2018-07-06T23:43:21.971Z,97548.38
2018-07-06T23:45:53.260Z,97544.91
2018-07-06T23:48:23.198Z,97543.59
2018-07-06T23:50:53.134Z,97544.33
2018-07-06T23:53:22.969Z,97548.12
2018-07-06T23:55:52.880Z,97547.34
2018-07-06T23:58:22.877Z,97546.57
